Time;durP1;ratioP1;P1;durP2;ratioP2;P2;SDS_P1;SDS_P2;PMS_P1;PMS_P2;Temp;Humidity;BMP_temperature;BMP_pressure;BME280_temperature;BME280_humidity;BME280_pressure;Samples;Min_cycle;Max_cycle;Signal;HPM_P1;HPM_P2
2023/12/25 00:02:12;;;;;;;19.15;2.67;;;10.10;99.90;;;;;;6191228;23;20380;-77
2023/12/25 00:04:37;;;;;;;14.07;2.60;;;10.10;99.90;;;;;;6191052;23;20012;-77
2023/12/25 00:07:03;;;;;;;23.38;3.38;;;10.10;99.90;;;;;;6191180;23;20017;-77
2023/12/25 00:09:29;;;;;;;20.33;3.05;;;10.10;99.90;;;;;;6191076;23;20445;-77
2023/12/25 00:11:54;;;;;;;12.00;2.90;;;10.10;99.90;;;;;;6191154;23;20337;-77
2023/12/25 00:14:21;;;;;;;13.10;2.63;;;10.10;99.90;;;;;;6191048;23;20341;-77
2023/12/25 00:16:46;;;;;;;17.58;3.10;;;10.10;99.90;;;;;;6191054;23;20348;-77
2023/12/25 00:19:12;;;;;;;17.50;2.83;;;10.10;99.90;;;;;;6191032;23;20017;-77
2023/12/25 00:21:37;;;;;;;12.10;2.92;;;10.10;99.90;;;;;;6191075;23;20054;-77
2023/12/25 00:24:04;;;;;;;11.55;3.05;;;10.10;99.90;;;;;;6190810;23;20063;-77
2023/12/25 00:26:30;;;;;;;15.32;2.08;;;10.10;99.90;;;;;;6190899;23;20456;-77
2023/12/25 00:28:58;;;;;;;15.88;3.10;;;10.10;99.90;;;;;;6190892;23;20075;-77
2023/12/25 00:31:24;;;;;;;12.40;2.78;;;10.10;99.90;;;;;;6190868;23;20021;-77
2023/12/25 00:33:49;;;;;;;15.73;2.80;;;10.10;99.90;;;;;;6190992;23;20306;-77
2023/12/25 00:36:15;;;;;;;20.90;4.65;;;10.10;99.90;;;;;;6190724;23;20024;-77
2023/12/25 00:38:40;;;;;;;18.42;2.58;;;10.00;99.90;;;;;;6190878;23;20016;-77
2023/12/25 00:41:06;;;;;;;18.23;2.40;;;10.10;99.90;;;;;;6190850;23;20024;-77
2023/12/25 00:43:32;;;;;;;19.90;3.03;;;10.10;99.90;;;;;;6190401;23;20012;-78
2023/12/25 00:46:04;;;;;;;18.23;3.65;;;10.00;99.90;;;;;;6191102;23;20111;-77
2023/12/25 00:48:30;;;;;;;17.10;2.42;;;10.10;99.90;;;;;;6190681;23;20013;-77
2023/12/25 00:50:55;;;;;;;16.42;2.80;;;10.10;99.90;;;;;;6190369;23;20019;-77
2023/12/25 00:53:21;;;;;;;16.83;3.50;;;10.10;99.90;;;;;;6217221;23;20017;-77
2023/12/25 00:55:47;;;;;;;14.35;2.72;;;10.00;99.90;;;;;;6190732;23;20016;-77
2023/12/25 00:58:12;;;;;;;16.88;2.58;;;10.10;99.90;;;;;;6190681;23;20020;-77
2023/12/25 01:00:38;;;;;;;16.88;2.78;;;10.00;99.90;;;;;;6190744;23;20020;-77
2023/12/25 01:03:04;;;;;;;17.40;2.55;;;10.00;99.90;;;;;;6190614;23;20012;-77
2023/12/25 01:05:29;;;;;;;20.17;3.63;;;10.00;99.90;;;;;;6190294;23;20025;-77
2023/12/25 01:07:55;;;;;;;18.75;2.80;;;10.00;99.90;;;;;;6217513;23;20114;-77
2023/12/25 01:10:20;;;;;;;22.17;2.83;;;10.00;99.90;;;;;;6190614;23;20024;-77
2023/12/25 01:12:46;;;;;;;19.00;2.85;;;10.00;99.90;;;;;;6190499;23;20012;-77
2023/12/25 01:15:12;;;;;;;19.38;2.75;;;10.00;99.90;;;;;;6190532;23;20025;-77
2023/12/25 01:17:38;;;;;;;19.30;2.75;;;9.90;99.90;;;;;;6190472;23;20459;-77
2023/12/25 01:20:04;;;;;;;17.92;3.83;;;9.90;99.90;;;;;;6190522;23;20024;-77
2023/12/25 01:22:29;;;;;;;17.02;3.85;;;9.90;99.90;;;;;;6190491;23;20099;-77
2023/12/25 01:24:55;;;;;;;17.35;2.88;;;9.90;99.90;;;;;;6190375;23;20092;-77
2023/12/25 01:27:21;;;;;;;27.40;4.63;;;9.90;99.90;;;;;;6190138;23;20016;-77
2023/12/25 01:29:46;;;;;;;17.20;2.85;;;9.90;99.90;;;;;;6190364;23;20028;-77
2023/12/25 01:32:12;;;;;;;22.58;3.33;;;9.90;99.90;;;;;;6190353;23;20102;-77
2023/12/25 01:34:37;;;;;;;14.05;3.17;;;9.90;99.90;;;;;;6190289;23;20019;-77
2023/12/25 01:37:04;;;;;;;15.15;2.97;;;9.80;99.90;;;;;;6190309;23;20017;-77
2023/12/25 01:39:30;;;;;;;13.13;2.10;;;9.90;99.90;;;;;;6190171;23;20441;-77
2023/12/25 01:41:55;;;;;;;14.77;2.28;;;9.90;99.90;;;;;;6190204;23;20100;-77
2023/12/25 01:44:21;;;;;;;14.93;2.80;;;9.80;99.90;;;;;;6189906;23;20495;-77
2023/12/25 01:46:47;;;;;;;16.88;3.40;;;9.90;99.90;;;;;;6190288;23;20024;-77
2023/12/25 01:49:13;;;;;;;12.25;1.98;;;9.90;99.90;;;;;;6190202;23;20088;-77
2023/12/25 01:51:38;;;;;;;17.60;2.78;;;9.90;99.90;;;;;;6190122;23;20463;-77
2023/12/25 01:54:07;;;;;;;15.73;3.47;;;9.80;99.90;;;;;;6191039;23;20016;-77
2023/12/25 01:56:34;;;;;;;13.43;2.60;;;9.80;99.90;;;;;;6190072;23;20095;-77
2023/12/25 01:58:59;;;;;;;15.52;2.20;;;9.80;99.90;;;;;;6190044;23;20325;-77
2023/12/25 02:01:25;;;;;;;12.38;2.13;;;9.80;99.90;;;;;;6190161;23;20514;-77
2023/12/25 02:03:51;;;;;;;14.65;3.25;;;9.80;99.90;;;;;;6190093;23;20013;-77
2023/12/25 02:06:17;;;;;;;18.85;2.78;;;9.80;99.90;;;;;;6189256;23;20413;-77
2023/12/25 02:08:43;;;;;;;11.90;2.15;;;9.80;99.90;;;;;;6189950;23;20052;-76
2023/12/25 02:11:08;;;;;;;21.00;2.85;;;9.80;99.90;;;;;;6189913;23;20021;-77
2023/12/25 02:13:34;;;;;;;17.08;3.33;;;9.80;99.90;;;;;;6189916;23;20087;-77
2023/12/25 02:16:00;;;;;;;14.70;3.20;;;9.80;99.90;;;;;;6189827;23;20475;-77
2023/12/25 02:18:26;;;;;;;11.93;2.28;;;9.80;99.90;;;;;;6189944;23;20024;-77
2023/12/25 02:20:55;;;;;;;18.05;3.13;;;9.70;99.90;;;;;;6216708;23;20021;-77
2023/12/25 02:23:24;;;;;;;15.13;2.53;;;9.80;99.90;;;;;;6189843;23;20013;-77
2023/12/25 02:25:54;;;;;;;15.88;2.40;;;9.80;99.90;;;;;;6190390;23;20025;-77
2023/12/25 02:28:19;;;;;;;16.42;3.65;;;9.80;99.90;;;;;;6189775;23;20023;-77
2023/12/25 02:30:46;;;;;;;17.30;2.20;;;9.80;99.90;;;;;;6189827;23;20021;-77
2023/12/25 02:33:11;;;;;;;19.52;3.58;;;9.80;99.90;;;;;;6189726;23;20032;-77
2023/12/25 02:35:37;;;;;;;17.85;2.80;;;9.80;99.90;;;;;;6189765;23;20017;-77
2023/12/25 02:38:03;;;;;;;23.42;3.83;;;9.70;99.90;;;;;;6189757;23;20337;-77
2023/12/25 02:40:28;;;;;;;17.65;2.80;;;9.70;99.90;;;;;;6189589;23;20086;-77
2023/12/25 02:42:54;;;;;;;17.13;3.25;;;9.70;99.90;;;;;;6189679;23;20013;-77
2023/12/25 02:45:19;;;;;;;14.35;2.67;;;9.80;99.90;;;;;;6189473;23;20023;-77
2023/12/25 02:47:47;;;;;;;13.52;3.08;;;9.70;99.90;;;;;;6189768;23;20067;-77
2023/12/25 02:50:12;;;;;;;14.13;2.67;;;9.70;99.90;;;;;;6189589;23;20023;-77
2023/12/25 02:52:38;;;;;;;22.05;3.08;;;9.70;99.90;;;;;;6189505;23;20056;-77
2023/12/25 02:55:04;;;;;;;19.88;2.85;;;9.70;99.90;;;;;;6189671;23;20024;-77
2023/12/25 02:57:29;;;;;;;18.33;3.00;;;9.70;99.90;;;;;;6216552;23;20092;-77
2023/12/25 02:59:55;;;;;;;11.80;2.22;;;9.60;99.90;;;;;;6189498;23;20052;-77
2023/12/25 03:02:21;;;;;;;12.38;2.78;;;9.60;99.90;;;;;;6189541;23;20017;-77
2023/12/25 03:04:46;;;;;;;20.50;3.90;;;9.60;99.90;;;;;;6189443;23;20036;-77
2023/12/25 03:07:12;;;;;;;13.40;2.33;;;9.60;99.90;;;;;;6216373;23;20070;-77
2023/12/25 03:09:38;;;;;;;14.43;3.00;;;9.60;99.90;;;;;;6189606;23;20009;-77
2023/12/25 03:12:03;;;;;;;20.60;3.72;;;9.50;99.90;;;;;;6189482;23;20023;-77
2023/12/25 03:14:29;;;;;;;16.90;3.35;;;9.50;99.90;;;;;;6189385;23;20074;-77
2023/12/25 03:16:54;;;;;;;18.85;2.55;;;9.50;99.90;;;;;;6189407;23;20011;-77
2023/12/25 03:19:20;;;;;;;15.27;3.20;;;9.40;99.90;;;;;;6189455;23;20017;-77
2023/12/25 03:21:46;;;;;;;13.80;2.67;;;9.40;99.90;;;;;;6189421;23;20013;-77
2023/12/25 03:24:11;;;;;;;16.95;3.25;;;9.40;99.90;;;;;;6189356;23;20020;-77
2023/12/25 03:26:37;;;;;;;17.42;2.22;;;9.40;99.90;;;;;;6189476;23;20023;-77
2023/12/25 03:29:03;;;;;;;13.90;3.08;;;9.40;99.90;;;;;;6189394;23;20009;-77
2023/12/25 03:31:29;;;;;;;21.30;2.63;;;9.50;99.90;;;;;;6189325;23;20447;-77
2023/12/25 03:33:58;;;;;;;18.67;2.88;;;9.40;99.90;;;;;;6189391;23;20044;-76
2023/12/25 03:36:24;;;;;;;14.75;2.60;;;9.50;99.90;;;;;;6189351;23;20016;-76
2023/12/25 03:38:50;;;;;;;15.45;2.55;;;9.50;99.90;;;;;;6189291;23;20409;-77
2023/12/25 03:41:15;;;;;;;15.85;2.40;;;9.50;99.90;;;;;;6189346;23;20409;-77
2023/12/25 03:43:41;;;;;;;15.88;3.60;;;9.50;99.90;;;;;;6214623;23;20020;-77
2023/12/25 03:46:09;;;;;;;19.35;3.55;;;9.50;99.90;;;;;;6189258;23;20091;-76
2023/12/25 03:48:35;;;;;;;13.15;3.00;;;9.50;99.90;;;;;;6189286;23;20020;-77
2023/12/25 03:51:00;;;;;;;18.75;3.35;;;9.50;99.90;;;;;;6189302;23;20341;-76
2023/12/25 03:53:27;;;;;;;21.02;3.50;;;9.50;99.90;;;;;;6189329;23;20100;-77
2023/12/25 03:55:53;;;;;;;21.48;2.22;;;9.50;99.90;;;;;;6189235;23;20075;-77
2023/12/25 03:58:18;;;;;;;13.75;2.22;;;9.50;99.90;;;;;;6189381;23;20009;-76
2023/12/25 04:00:44;;;;;;;20.90;3.45;;;9.60;99.90;;;;;;6189196;23;20024;-77
2023/12/25 04:03:11;;;;;;;18.58;2.75;;;9.50;99.90;;;;;;6189298;23;20028;-76
2023/12/25 04:05:37;;;;;;;15.73;2.67;;;9.50;99.90;;;;;;6189044;23;20024;-76
2023/12/25 04:08:03;;;;;;;17.17;2.95;;;9.60;99.90;;;;;;6190099;23;20052;-77
2023/12/25 04:10:32;;;;;;;18.48;3.30;;;9.50;99.90;;;;;;6190023;23;20032;-77
2023/12/25 04:12:57;;;;;;;19.60;4.40;;;9.50;99.90;;;;;;6189030;23;20021;-76
2023/12/25 04:15:23;;;;;;;17.88;3.30;;;9.50;99.90;;;;;;6189194;23;20017;-77
2023/12/25 04:17:48;;;;;;;23.38;2.90;;;9.50;99.90;;;;;;6189185;23;20019;-77
2023/12/25 04:20:14;;;;;;;17.27;2.72;;;9.50;99.90;;;;;;6188870;23;20098;-76
2023/12/25 04:22:40;;;;;;;13.98;3.00;;;9.50;99.90;;;;;;6190025;23;20029;-77
2023/12/25 04:25:06;;;;;;;22.15;4.35;;;9.50;99.90;;;;;;6189109;23;20433;-77
2023/12/25 04:27:31;;;;;;;22.50;3.13;;;9.50;99.90;;;;;;6188987;23;20472;-77
2023/12/25 04:29:57;;;;;;;18.35;3.50;;;9.50;99.90;;;;;;6217632;23;20023;-77
2023/12/25 04:32:22;;;;;;;18.20;2.95;;;9.50;99.90;;;;;;6190932;23;20049;-77
2023/12/25 04:34:48;;;;;;;15.68;3.50;;;9.40;99.90;;;;;;6190896;23;20384;-77
2023/12/25 04:37:14;;;;;;;18.20;3.03;;;9.50;99.90;;;;;;6190980;23;20449;-77
2023/12/25 04:39:46;;;;;;;12.40;2.88;;;9.40;99.90;;;;;;6190859;23;20016;-77
2023/12/25 04:42:12;;;;;;;14.57;2.90;;;9.40;99.90;;;;;;6190871;23;20028;-77
2023/12/25 04:44:39;;;;;;;20.88;3.20;;;9.40;99.90;;;;;;6190612;23;20021;-77
2023/12/25 04:47:05;;;;;;;23.00;3.50;;;9.30;99.90;;;;;;6190693;23;20052;-76
2023/12/25 04:49:32;;;;;;;15.00;3.53;;;9.40;99.90;;;;;;6190767;23;20063;-77
2023/12/25 04:51:57;;;;;;;18.30;2.60;;;9.40;99.90;;;;;;6190758;23;20028;-76
2023/12/25 04:54:23;;;;;;;15.93;2.85;;;9.40;99.90;;;;;;6190758;23;20017;-77
2023/12/25 04:56:51;;;;;;;15.35;2.42;;;9.40;99.90;;;;;;6190636;23;20020;-77
2023/12/25 04:59:20;;;;;;;20.40;3.58;;;9.40;99.90;;;;;;6190617;23;20048;-77
2023/12/25 05:01:48;;;;;;;17.00;2.80;;;9.40;99.90;;;;;;6190708;23;20044;-76
2023/12/25 05:04:14;;;;;;;17.80;3.25;;;9.40;99.90;;;;;;6190525;23;20326;-77
2023/12/25 05:06:40;;;;;;;19.17;3.20;;;9.30;99.90;;;;;;6190616;23;20059;-76
2023/12/25 05:09:06;;;;;;;13.93;2.55;;;9.40;99.90;;;;;;6190583;23;20017;-77
2023/12/25 05:11:32;;;;;;;15.98;3.33;;;9.40;99.90;;;;;;6190538;23;20016;-76
2023/12/25 05:13:57;;;;;;;11.55;2.85;;;9.40;99.90;;;;;;6190513;23;20019;-77
2023/12/25 05:16:23;;;;;;;14.60;2.80;;;9.40;99.90;;;;;;6190515;23;20017;-77
2023/12/25 05:18:48;;;;;;;21.60;3.70;;;9.30;99.90;;;;;;6190534;23;20111;-77
2023/12/25 05:21:14;;;;;;;19.35;3.00;;;9.30;99.90;;;;;;6217337;23;20009;-77
2023/12/25 05:23:40;;;;;;;16.52;2.50;;;9.30;99.90;;;;;;6190542;23;20059;-77
2023/12/25 05:26:05;;;;;;;24.70;3.65;;;9.40;99.90;;;;;;6190384;23;20017;-77
2023/12/25 05:28:31;;;;;;;24.13;2.95;;;9.40;99.90;;;;;;6190394;23;20016;-77
2023/12/25 05:30:57;;;;;;;24.35;3.13;;;9.40;99.90;;;;;;6190311;23;20017;-77
2023/12/25 05:33:23;;;;;;;25.63;3.10;;;9.40;99.90;;;;;;6190294;23;20016;-77
2023/12/25 05:35:48;;;;;;;16.15;2.88;;;9.40;99.90;;;;;;6190293;23;20023;-77
2023/12/25 05:38:14;;;;;;;17.58;2.88;;;9.40;99.90;;;;;;6190237;23;20012;-77
2023/12/25 05:40:39;;;;;;;20.20;3.05;;;9.40;99.90;;;;;;6216699;23;20514;-77
2023/12/25 05:43:10;;;;;;;18.90;4.43;;;9.40;99.90;;;;;;6190262;23;20021;-77
2023/12/25 05:45:37;;;;;;;16.98;2.35;;;9.40;99.90;;;;;;6189997;23;20042;-77
2023/12/25 05:48:04;;;;;;;19.08;2.60;;;9.50;99.90;;;;;;6189533;23;20024;-76
2023/12/25 05:50:29;;;;;;;28.58;3.25;;;9.40;99.90;;;;;;6190123;23;20048;-77
2023/12/25 05:52:55;;;;;;;14.80;3.10;;;9.40;99.90;;;;;;6190270;23;20024;-77
2023/12/25 05:55:21;;;;;;;18.10;4.03;;;9.40;99.90;;;;;;6190171;23;20344;-77
2023/12/25 05:57:47;;;;;;;18.85;5.32;;;9.40;99.90;;;;;;6190111;23;20044;-77
2023/12/25 06:00:16;;;;;;;19.85;4.18;;;9.40;99.90;;;;;;6216745;23;20020;-77
2023/12/25 06:02:41;;;;;;;20.60;3.75;;;9.40;99.90;;;;;;6216602;23;20452;-77
2023/12/25 06:05:07;;;;;;;24.40;3.35;;;9.40;99.90;;;;;;6190638;23;20020;-77
2023/12/25 06:07:33;;;;;;;18.13;3.30;;;9.40;99.90;;;;;;6189972;23;20333;-77
2023/12/25 06:09:59;;;;;;;28.38;4.75;;;9.40;99.90;;;;;;6189990;23;20341;-77
2023/12/25 06:12:24;;;;;;;24.75;3.08;;;9.40;99.90;;;;;;6190099;23;20020;-77
2023/12/25 06:14:50;;;;;;;19.23;3.42;;;9.40;99.90;;;;;;6189907;23;20091;-76
2023/12/25 06:17:15;;;;;;;17.77;3.50;;;9.40;99.90;;;;;;6189977;23;20463;-77
2023/12/25 06:19:44;;;;;;;20.10;4.70;;;9.40;99.90;;;;;;6189883;23;20062;-77
2023/12/25 06:22:11;;;;;;;21.70;3.63;;;9.30;99.90;;;;;;6189837;23;20031;-77
2023/12/25 06:24:36;;;;;;;19.95;4.38;;;9.40;99.90;;;;;;6216723;23;20017;-76
2023/12/25 06:27:03;;;;;;;23.20;4.25;;;9.30;99.90;;;;;;6189766;23;20024;-77
2023/12/25 06:29:28;;;;;;;14.07;2.88;;;9.30;99.90;;;;;;6189617;23;20012;-76
2023/12/25 06:31:54;;;;;;;16.65;4.30;;;9.30;99.90;;;;;;6189729;23;20471;-76
2023/12/25 06:34:20;;;;;;;21.27;3.50;;;9.20;99.90;;;;;;6216737;23;20051;-76
2023/12/25 06:36:45;;;;;;;20.45;3.90;;;9.20;99.90;;;;;;6189834;23;20115;-76
2023/12/25 06:39:11;;;;;;;15.98;2.80;;;9.20;99.90;;;;;;6189753;23;20072;-76
2023/12/25 06:41:36;;;;;;;19.15;3.63;;;9.20;99.90;;;;;;6189699;23;20063;-76
2023/12/25 06:44:03;;;;;;;17.95;2.50;;;9.10;99.90;;;;;;6189312;23;20027;-76
2023/12/25 06:46:32;;;;;;;15.57;3.08;;;9.10;99.90;;;;;;6189538;23;20024;-77
2023/12/25 06:48:58;;;;;;;20.27;3.58;;;9.20;99.90;;;;;;6189563;23;20023;-77
2023/12/25 06:51:24;;;;;;;21.52;3.50;;;9.20;99.90;;;;;;6189382;23;20020;-76
2023/12/25 06:53:50;;;;;;;9.10;1.98;;;9.30;99.90;;;;;;6189729;23;20017;-76
2023/12/25 06:56:15;;;;;;;19.92;2.90;;;9.30;99.90;;;;;;6189497;23;20050;-76
2023/12/25 06:58:41;;;;;;;11.73;1.50;;;9.30;99.90;;;;;;6189642;23;20020;-76
2023/12/25 07:01:06;;;;;;;11.32;1.73;;;9.20;99.90;;;;;;6189637;23;20020;-76
2023/12/25 07:03:33;;;;;;;9.18;1.98;;;9.20;99.90;;;;;;6189611;23;20016;-77
2023/12/25 07:05:58;;;;;;;8.52;1.30;;;9.20;99.90;;;;;;6189301;23;20341;-77
2023/12/25 07:08:27;;;;;;;10.98;1.58;;;9.20;99.90;;;;;;6189521;23;20419;-77
2023/12/25 07:10:57;;;;;;;10.30;1.08;;;9.10;99.90;;;;;;6189480;23;20044;-76
2023/12/25 07:13:23;;;;;;;6.40;1.27;;;9.00;99.90;;;;;;6189638;23;20084;-77
2023/12/25 07:15:48;;;;;;;9.65;1.48;;;9.00;99.90;;;;;;6189376;23;20048;-77
2023/12/25 07:18:14;;;;;;;8.02;1.05;;;8.90;99.90;;;;;;6189471;23;20009;-77
2023/12/25 07:20:40;;;;;;;5.75;1.05;;;8.90;99.90;;;;;;6189540;23;20372;-77
2023/12/25 07:23:06;;;;;;;12.50;1.25;;;8.90;99.90;;;;;;6189435;23;20013;-77
2023/12/25 07:25:31;;;;;;;8.18;1.40;;;8.80;99.90;;;;;;6189281;23;20036;-77
2023/12/25 07:27:57;;;;;;;12.70;1.50;;;8.80;99.90;;;;;;6189544;23;20024;-77
2023/12/25 07:30:23;;;;;;;11.23;1.58;;;8.70;99.90;;;;;;6216298;23;20329;-77
2023/12/25 07:32:48;;;;;;;16.58;2.70;;;8.70;99.90;;;;;;6189506;23;20047;-77
2023/12/25 07:35:14;;;;;;;20.70;2.78;;;8.70;99.90;;;;;;6189426;23;20016;-76
2023/12/25 07:37:39;;;;;;;18.90;3.60;;;8.70;99.90;;;;;;6189418;23;20182;-76
2023/12/25 07:40:06;;;;;;;16.70;3.17;;;8.70;99.90;;;;;;6189388;23;20349;-76
2023/12/25 07:42:31;;;;;;;16.73;2.25;;;8.60;99.90;;;;;;6216859;23;20047;-77
2023/12/25 07:44:57;;;;;;;11.55;2.22;;;8.60;99.90;;;;;;6189030;23;20020;-76
2023/12/25 07:47:24;;;;;;;20.13;2.72;;;8.60;99.90;;;;;;6189222;23;20020;-77
2023/12/25 07:49:50;;;;;;;13.50;2.85;;;8.60;99.90;;;;;;6189266;23;20017;-77
2023/12/25 07:52:15;;;;;;;13.77;2.10;;;8.60;99.90;;;;;;6189353;23;20059;-77
2023/12/25 07:54:41;;;;;;;16.50;3.15;;;8.60;99.90;;;;;;6189128;23;20016;-77
2023/12/25 07:57:07;;;;;;;23.05;2.72;;;8.60;99.90;;;;;;6189147;23;20349;-76
2023/12/25 07:59:32;;;;;;;17.45;2.60;;;8.60;99.90;;;;;;6216193;23;20036;-77
2023/12/25 08:01:58;;;;;;;18.02;2.80;;;8.60;99.90;;;;;;6216358;23;20012;-77
2023/12/25 08:04:23;;;;;;;22.67;3.80;;;8.60;99.90;;;;;;6216926;23;20021;-76
2023/12/25 08:06:49;;;;;;;18.05;3.10;;;8.70;99.90;;;;;;6190913;23;20067;-76
2023/12/25 08:09:15;;;;;;;17.58;3.35;;;8.70;99.90;;;;;;6191021;23;20071;-76
2023/12/25 08:11:40;;;;;;;19.88;3.55;;;8.70;99.90;;;;;;6191082;23;20040;-76
2023/12/25 08:14:06;;;;;;;16.35;2.75;;;8.70;99.90;;;;;;6191053;23;20023;-77
2023/12/25 08:16:31;;;;;;;14.65;2.95;;;8.70;99.90;;;;;;6217422;23;20052;-77
2023/12/25 08:18:57;;;;;;;13.27;2.20;;;8.70;99.90;;;;;;6191079;23;20013;-77
2023/12/25 08:21:23;;;;;;;16.13;2.50;;;8.70;99.90;;;;;;6189757;23;20018;-77
2023/12/25 08:23:49;;;;;;;21.40;2.85;;;8.70;99.90;;;;;;6190697;23;20095;-80
2023/12/25 08:26:14;;;;;;;12.43;2.67;;;8.80;99.90;;;;;;6190575;23;20059;-78
2023/12/25 08:28:40;;;;;;;13.35;2.75;;;8.70;99.90;;;;;;6190640;23;20449;-77
2023/12/25 08:31:06;;;;;;;16.77;3.08;;;8.70;99.90;;;;;;6190419;23;20025;-78
2023/12/25 08:33:34;;;;;;;13.60;2.42;;;8.60;99.90;;;;;;6190555;23;20012;-77
2023/12/25 08:36:00;;;;;;;9.05;1.40;;;8.60;99.90;;;;;;6190772;23;20333;-76
2023/12/25 08:38:25;;;;;;;14.82;1.45;;;8.60;99.90;;;;;;6190467;23;20444;-77
2023/12/25 08:40:51;;;;;;;14.57;1.67;;;8.60;99.90;;;;;;6190580;23;20020;-77
2023/12/25 08:43:17;;;;;;;10.80;1.40;;;8.60;99.90;;;;;;6190354;23;20016;-77
2023/12/25 08:45:43;;;;;;;11.45;2.03;;;8.60;99.90;;;;;;6189933;23;20017;-77
2023/12/25 08:48:10;;;;;;;18.60;2.22;;;8.50;99.90;;;;;;6190193;23;20024;-77
2023/12/25 08:50:35;;;;;;;9.48;1.42;;;8.50;99.90;;;;;;6190521;23;20020;-77
2023/12/25 08:53:01;;;;;;;17.00;2.40;;;8.40;99.90;;;;;;6190513;23;20008;-77
2023/12/25 08:55:27;;;;;;;11.65;1.65;;;8.40;99.90;;;;;;6190180;23;20092;-77
2023/12/25 08:57:53;;;;;;;13.60;2.03;;;8.40;99.90;;;;;;6190344;23;20063;-77
2023/12/25 09:00:20;;;;;;;20.45;2.50;;;8.40;99.90;;;;;;6190455;23;20504;-81
2023/12/25 09:02:46;;;;;;;11.10;1.90;;;8.30;99.90;;;;;;6190361;23;20021;-79
2023/12/25 09:05:12;;;;;;;18.80;3.28;;;8.30;99.90;;;;;;6216704;23;20341;-79
2023/12/25 09:07:37;;;;;;;20.08;3.42;;;8.30;99.90;;;;;;6190186;23;20140;-78
2023/12/25 09:10:06;;;;;;;18.58;2.58;;;8.30;99.90;;;;;;6190281;23;20019;-78
2023/12/25 09:12:32;;;;;;;25.90;2.53;;;8.30;99.90;;;;;;6190087;23;20024;-78
2023/12/25 09:14:58;;;;;;;18.92;3.38;;;8.30;99.90;;;;;;6189996;23;20322;-78
2023/12/25 09:17:23;;;;;;;18.88;2.63;;;8.30;99.90;;;;;;6190266;23;20043;-77
2023/12/25 09:19:49;;;;;;;11.75;2.20;;;8.30;99.90;;;;;;6190162;23;20449;-81
2023/12/25 09:22:15;;;;;;;18.02;2.20;;;8.40;99.90;;;;;;6190014;23;20079;-78
2023/12/25 09:24:46;;;;;;;18.65;3.00;;;8.40;99.90;;;;;;6216881;23;20027;-78
2023/12/25 09:27:11;;;;;;;21.00;3.33;;;8.40;99.90;;;;;;6217040;23;20023;-78
2023/12/25 09:29:37;;;;;;;15.82;2.50;;;8.30;99.90;;;;;;6189755;23;20012;-78
2023/12/25 09:32:03;;;;;;;11.52;2.58;;;8.40;99.90;;;;;;6189943;23;20027;-78
2023/12/25 09:34:29;;;;;;;25.33;2.92;;;8.40;99.90;;;;;;6190072;23;20524;-78
2023/12/25 09:36:56;;;;;;;19.40;2.95;;;8.40;99.90;;;;;;6189986;23;20020;-78
2023/12/25 09:39:22;;;;;;;13.88;3.33;;;8.50;99.90;;;;;;6189957;23;20016;-78
2023/12/25 09:41:48;;;;;;;17.70;2.65;;;8.50;99.90;;;;;;6190041;23;20025;-79
2023/12/25 09:44:13;;;;;;;14.38;2.75;;;8.60;99.90;;;;;;6189582;23;20031;-79
2023/12/25 09:46:41;;;;;;;12.07;2.65;;;8.60;99.90;;;;;;6189821;23;20025;-78
2023/12/25 09:49:07;;;;;;;15.90;2.58;;;8.60;99.90;;;;;;6189854;23;20072;-79
2023/12/25 09:51:36;;;;;;;14.10;2.08;;;8.60;99.90;;;;;;6189651;23;20448;-78
2023/12/25 09:54:02;;;;;;;22.05;3.78;;;8.60;99.90;;;;;;6189738;23;20035;-79
2023/12/25 09:56:34;;;;;;;18.58;3.25;;;8.70;99.90;;;;;;6189670;23;20449;-79
2023/12/25 09:59:00;;;;;;;20.77;3.78;;;8.60;99.90;;;;;;6189906;23;20068;-79
2023/12/25 10:01:26;;;;;;;15.57;3.30;;;8.60;99.90;;;;;;6189675;23;20389;-78
2023/12/25 10:03:52;;;;;;;22.30;3.22;;;8.70;99.90;;;;;;6189755;23;20024;-78
2023/12/25 10:06:20;;;;;;;17.67;2.83;;;8.70;99.90;;;;;;6189513;23;20021;-79
2023/12/25 10:08:46;;;;;;;17.40;3.67;;;8.70;99.90;;;;;;6189762;23;20500;-77
2023/12/25 10:11:15;;;;;;;22.02;2.88;;;8.70;99.90;;;;;;6189741;23;20016;-77
2023/12/25 10:13:41;;;;;;;19.80;3.60;;;8.70;99.90;;;;;;6216520;23;20051;-77
2023/12/25 10:16:07;;;;;;;15.85;2.35;;;8.80;99.90;;;;;;6189572;23;20102;-78
2023/12/25 10:18:34;;;;;;;21.33;3.00;;;8.80;99.90;;;;;;6216506;23;20013;-78
2023/12/25 10:21:03;;;;;;;13.23;2.13;;;8.80;99.90;;;;;;6189601;23;20016;-78
2023/12/25 10:23:30;;;;;;;19.10;3.38;;;8.80;99.90;;;;;;6189641;23;20023;-78
2023/12/25 10:26:02;;;;;;;16.60;2.80;;;8.80;99.90;;;;;;6188950;23;20016;-78
2023/12/25 10:28:33;;;;;;;15.45;2.78;;;8.80;99.90;;;;;;6189559;23;20035;-78
2023/12/25 10:31:07;;;;;;;18.00;3.13;;;8.80;99.90;;;;;;6189450;23;20072;-78
2023/12/25 10:33:35;;;;;;;22.95;3.10;;;8.80;99.90;;;;;;6189548;23;20462;-78
2023/12/25 10:36:05;;;;;;;24.92;5.13;;;8.80;99.90;;;;;;6189290;23;20423;-78
2023/12/25 10:38:33;;;;;;;19.83;3.15;;;8.80;99.90;;;;;;6189340;23;20048;-78
2023/12/25 10:41:18;;;;;;;17.38;2.47;;;8.80;99.90;;;;;;6189528;23;20075;-78
2023/12/25 10:43:59;;;;;;;17.73;2.63;;;8.90;99.90;;;;;;6188940;23;20021;-78
2023/12/25 10:46:30;;;;;;;21.08;4.38;;;8.80;99.90;;;;;;6188024;23;20032;-78
2023/12/25 10:48:56;;;;;;;21.83;3.38;;;8.80;99.90;;;;;;6188293;23;20095;-78
2023/12/25 10:51:40;;;;;;;18.25;3.08;;;8.90;99.90;;;;;;6188219;23;20021;-78
2023/12/25 10:54:08;;;;;;;22.77;2.85;;;8.90;99.90;;;;;;6188056;23;20012;-78
2023/12/25 10:56:36;;;;;;;17.50;2.78;;;8.90;99.90;;;;;;6188091;23;20084;-78
2023/12/25 10:59:21;;;;;;;23.27;3.17;;;8.90;99.90;;;;;;6188113;23;20024;-78
2023/12/25 11:01:52;;;;;;;17.25;2.38;;;9.00;99.90;;;;;;6214771;23;20047;-78
2023/12/25 11:04:20;;;;;;;16.30;2.00;;;9.00;99.90;;;;;;6188010;23;20021;-77
2023/12/25 11:06:46;;;;;;;14.15;2.58;;;9.00;99.90;;;;;;6214523;23;20031;-78
2023/12/25 11:09:13;;;;;;;14.40;3.83;;;9.10;99.90;;;;;;6188062;23;20336;-78
2023/12/25 11:11:41;;;;;;;16.88;2.65;;;9.10;99.90;;;;;;6188108;23;20017;-78
2023/12/25 11:14:07;;;;;;;13.77;2.22;;;9.10;99.90;;;;;;6187929;23;20021;-78
2023/12/25 11:16:38;;;;;;;16.05;2.15;;;9.10;99.90;;;;;;6214896;23;20019;-78
2023/12/25 11:19:05;;;;;;;18.67;2.67;;;9.10;99.90;;;;;;6187919;23;20021;-78
2023/12/25 11:21:33;;;;;;;19.25;2.28;;;9.10;99.90;;;;;;6187906;23;20056;-78
2023/12/25 11:24:00;;;;;;;18.23;3.58;;;9.20;99.90;;;;;;6187892;23;20027;-78
2023/12/25 11:26:30;;;;;;;12.50;2.28;;;9.10;99.90;;;;;;6214720;23;20021;-78
2023/12/25 11:29:06;;;;;;;18.55;3.05;;;9.20;99.90;;;;;;6187900;23;20021;-79
2023/12/25 11:31:47;;;;;;;17.25;2.42;;;9.20;99.90;;;;;;6187841;23;20020;-78
2023/12/25 11:34:23;;;;;;;9.60;2.20;;;9.20;99.90;;;;;;6187815;23;20318;-78
2023/12/25 11:36:56;;;;;;;14.93;2.35;;;9.20;99.90;;;;;;6187859;23;20030;-78
2023/12/25 11:39:23;;;;;;;17.35;2.10;;;9.20;99.90;;;;;;6188954;23;20024;-78
2023/12/25 11:41:49;;;;;;;19.27;2.88;;;9.10;99.90;;;;;;6188870;23;20008;-78
2023/12/25 11:44:20;;;;;;;13.10;1.85;;;9.20;99.90;;;;;;6109070;23;1868784;-78
2023/12/25 11:46:47;;;;;;;18.45;2.67;;;9.10;99.90;;;;;;6191007;23;20471;-78
2023/12/25 11:49:14;;;;;;;17.42;2.25;;;9.10;99.90;;;;;;6191043;23;20017;-78
2023/12/25 11:51:46;;;;;;;10.73;3.10;;;9.10;99.90;;;;;;6190980;23;20017;-78
2023/12/25 11:54:12;;;;;;;16.67;2.17;;;9.10;99.90;;;;;;6190846;23;20063;-78
2023/12/25 11:56:38;;;;;;;13.00;2.83;;;9.10;99.90;;;;;;6190872;23;20012;-78
2023/12/25 11:59:04;;;;;;;13.43;1.98;;;9.10;99.90;;;;;;6217992;23;20044;-78
2023/12/25 12:01:30;;;;;;;16.27;2.22;;;9.10;99.90;;;;;;6191081;23;20426;-78
2023/12/25 12:03:56;;;;;;;16.33;3.33;;;9.10;99.90;;;;;;6191243;23;20023;-79
2023/12/25 12:06:22;;;;;;;20.35;2.40;;;9.10;99.90;;;;;;6191012;23;20021;-78
2023/12/25 12:08:48;;;;;;;11.40;2.08;;;9.10;99.90;;;;;;6191266;23;20016;-78
2023/12/25 12:11:15;;;;;;;15.23;3.25;;;9.10;99.90;;;;;;6191064;23;20075;-78
2023/12/25 12:13:41;;;;;;;10.20;1.88;;;9.10;99.90;;;;;;6191060;23;20017;-78
2023/12/25 12:16:07;;;;;;;9.93;1.55;;;9.10;99.90;;;;;;6190965;23;20091;-78
2023/12/25 12:18:34;;;;;;;13.55;1.70;;;9.10;99.90;;;;;;6191346;23;20036;-78
2023/12/25 12:21:00;;;;;;;10.57;2.65;;;9.10;99.90;;;;;;6217947;23;20087;-78
2023/12/25 12:23:31;;;;;;;8.80;1.67;;;9.20;99.90;;;;;;6217391;23;20425;-78
2023/12/25 12:25:57;;;;;;;17.52;2.47;;;9.20;99.90;;;;;;6216824;23;20023;-77
2023/12/25 12:28:23;;;;;;;15.55;3.15;;;9.10;99.90;;;;;;6190476;23;20012;-77
2023/12/25 12:30:48;;;;;;;15.38;2.63;;;9.20;99.90;;;;;;6190721;23;20457;-77
2023/12/25 12:33:16;;;;;;;12.35;3.42;;;9.20;99.90;;;;;;6190618;23;20029;-77
2023/12/25 12:35:41;;;;;;;16.80;2.53;;;9.20;99.90;;;;;;6190553;23;20396;-77
2023/12/25 12:38:10;;;;;;;16.08;2.97;;;9.10;99.90;;;;;;6190849;23;20092;-77
2023/12/25 12:40:35;;;;;;;14.98;3.33;;;9.10;99.90;;;;;;6190565;23;20380;-77
2023/12/25 12:43:05;;;;;;;8.32;2.20;;;9.10;99.90;;;;;;6190404;23;20043;-77